<?xml version="1.0" encoding="UTF-8" standalone="no" ?>
<gpx xmlns="http://www.topografix.com/GPX/1/1" xmlns:xsi="http://www.w3.org/2001/XMLSchema-instance" xsi:schemaLocation="http://www.topografix.com/GPX/1/1 http://www.topografix.com/GPX/1/1/gpx.xsd" version="1.1" creator="VisuGPX - https://www.visugpx.com">
  <metadata>
    <name>La maya</name>
    <desc><![CDATA[Randonnée à la maya                              ]]></desc>
  </metadata>
  <trk>
    <name><![CDATA[ACTIVE LOG 001]]></name>
    <trkseg>
      <trkpt lat="46.83915" lon="6.49986">
        <ele>1085.9465332</ele>
        <time>2012-01-15T09:08:00Z</time>
      </trkpt>
      <trkpt lat="46.83936" lon="6.4999">
        <ele>1087.3884277</ele>
        <time>2012-01-15T09:09:58Z</time>
      </trkpt>
      <trkpt lat="46.8392" lon="6.49998">
        <ele>1087.3884277</ele>
        <time>2012-01-15T09:13:31Z</time>
      </trkpt>
      <trkpt lat="46.83942" lon="6.50031">
        <ele>1091.7143555</ele>
        <time>2012-01-15T09:14:20Z</time>
      </trkpt>
      <trkpt lat="46.83963" lon="6.50126">
        <ele>1099.885498</ele>
        <time>2012-01-15T09:15:54Z</time>
      </trkpt>
      <trkpt lat="46.8397" lon="6.50168">
        <ele>1102.2888184</ele>
        <time>2012-01-15T09:16:36Z</time>
      </trkpt>
      <trkpt lat="46.83985" lon="6.50175">
        <ele>1102.7695313</ele>
        <time>2012-01-15T09:17:13Z</time>
      </trkpt>
      <trkpt lat="46.83988" lon="6.50198">
        <ele>1104.2116699</ele>
        <time>2012-01-15T09:17:48Z</time>
      </trkpt>
      <trkpt lat="46.84001" lon="6.50229">
        <ele>1105.6535645</ele>
        <time>2012-01-15T09:18:15Z</time>
      </trkpt>
      <trkpt lat="46.8405" lon="6.50291">
        <ele>1108.5373535</ele>
        <time>2012-01-15T09:21:42Z</time>
      </trkpt>
      <trkpt lat="46.84045" lon="6.50298">
        <ele>1109.0180664</ele>
        <time>2012-01-15T09:22:27Z</time>
      </trkpt>
      <trkpt lat="46.84138" lon="6.50424">
        <ele>1121.5151367</ele>
        <time>2012-01-15T09:25:16Z</time>
      </trkpt>
      <trkpt lat="46.84144" lon="6.50433">
        <ele>1121.5151367</ele>
        <time>2012-01-15T09:25:40Z</time>
      </trkpt>
      <trkpt lat="46.84184" lon="6.50522">
        <ele>1128.2443848</ele>
        <time>2012-01-15T09:27:44Z</time>
      </trkpt>
      <trkpt lat="46.84299" lon="6.50673">
        <ele>1131.128418</ele>
        <time>2012-01-15T09:31:05Z</time>
      </trkpt>
      <trkpt lat="46.84358" lon="6.50707">
        <ele>1134.0124512</ele>
        <time>2012-01-15T09:32:26Z</time>
      </trkpt>
      <trkpt lat="46.84385" lon="6.50807">
        <ele>1131.6088867</ele>
        <time>2012-01-15T09:34:08Z</time>
      </trkpt>
      <trkpt lat="46.84408" lon="6.5083">
        <ele>1134.973877</ele>
        <time>2012-01-15T09:34:44Z</time>
      </trkpt>
      <trkpt lat="46.84416" lon="6.50837">
        <ele>1134.0124512</ele>
        <time>2012-01-15T09:34:59Z</time>
      </trkpt>
      <trkpt lat="46.844" lon="6.50896">
        <ele>1136.4157715</ele>
        <time>2012-01-15T09:37:01Z</time>
      </trkpt>
      <trkpt lat="46.84409" lon="6.50876">
        <ele>1137.857666</ele>
        <time>2012-01-15T09:38:05Z</time>
      </trkpt>
      <trkpt lat="46.84433" lon="6.50885">
        <ele>1139.2995605</ele>
        <time>2012-01-15T09:38:41Z</time>
      </trkpt>
      <trkpt lat="46.84439" lon="6.50885">
        <ele>1136.8962402</ele>
        <time>2012-01-15T09:39:03Z</time>
      </trkpt>
      <trkpt lat="46.84487" lon="6.50969">
        <ele>1142.6643066</ele>
        <time>2012-01-15T09:43:43Z</time>
      </trkpt>
      <trkpt lat="46.84455" lon="6.50986">
        <ele>1144.1062012</ele>
        <time>2012-01-15T09:47:57Z</time>
      </trkpt>
      <trkpt lat="46.84452" lon="6.51001">
        <ele>1147.4707031</ele>
        <time>2012-01-15T09:49:09Z</time>
      </trkpt>
      <trkpt lat="46.84447" lon="6.51015">
        <ele>1146.9899902</ele>
        <time>2012-01-15T09:49:48Z</time>
      </trkpt>
      <trkpt lat="46.84465" lon="6.5102">
        <ele>1149.8742676</ele>
        <time>2012-01-15T09:50:30Z</time>
      </trkpt>
      <trkpt lat="46.8445" lon="6.51007">
        <ele>1150.3549805</ele>
        <time>2012-01-15T09:51:11Z</time>
      </trkpt>
      <trkpt lat="46.84431" lon="6.51028">
        <ele>1151.3161621</ele>
        <time>2012-01-15T09:51:46Z</time>
      </trkpt>
      <trkpt lat="46.8445" lon="6.51053">
        <ele>1150.8354492</ele>
        <time>2012-01-15T09:52:18Z</time>
      </trkpt>
      <trkpt lat="46.84434" lon="6.51059">
        <ele>1153.2387695</ele>
        <time>2012-01-15T09:52:50Z</time>
      </trkpt>
      <trkpt lat="46.8445" lon="6.51091">
        <ele>1153.2387695</ele>
        <time>2012-01-15T09:55:31Z</time>
      </trkpt>
      <trkpt lat="46.84459" lon="6.51088">
        <ele>1155.161377</ele>
        <time>2012-01-15T09:56:08Z</time>
      </trkpt>
      <trkpt lat="46.84465" lon="6.51111">
        <ele>1150.8354492</ele>
        <time>2012-01-15T09:57:07Z</time>
      </trkpt>
      <trkpt lat="46.84443" lon="6.51116">
        <ele>1153.2387695</ele>
        <time>2012-01-15T09:57:57Z</time>
      </trkpt>
      <trkpt lat="46.84446" lon="6.51146">
        <ele>1156.1225586</ele>
        <time>2012-01-15T09:58:48Z</time>
      </trkpt>
      <trkpt lat="46.84413" lon="6.51159">
        <ele>1156.6032715</ele>
        <time>2012-01-15T10:01:31Z</time>
      </trkpt>
      <trkpt lat="46.84381" lon="6.51141">
        <ele>1157.0839844</ele>
        <time>2012-01-15T10:02:57Z</time>
      </trkpt>
      <trkpt lat="46.84413" lon="6.51131">
        <ele>1163.8129883</ele>
        <time>2012-01-15T10:04:23Z</time>
      </trkpt>
      <trkpt lat="46.84376" lon="6.5112">
        <ele>1166.6972656</ele>
        <time>2012-01-15T10:05:13Z</time>
      </trkpt>
      <trkpt lat="46.84373" lon="6.51153">
        <ele>1170.0617676</ele>
        <time>2012-01-15T10:05:50Z</time>
      </trkpt>
      <trkpt lat="46.84422" lon="6.51188">
        <ele>1170.5424805</ele>
        <time>2012-01-15T10:06:25Z</time>
      </trkpt>
      <trkpt lat="46.84394" lon="6.51191">
        <ele>1177.7521973</ele>
        <time>2012-01-15T10:07:59Z</time>
      </trkpt>
      <trkpt lat="46.8438" lon="6.51208">
        <ele>1177.2717285</ele>
        <time>2012-01-15T10:08:38Z</time>
      </trkpt>
      <trkpt lat="46.84426" lon="6.5123">
        <ele>1177.7521973</ele>
        <time>2012-01-15T10:11:39Z</time>
      </trkpt>
      <trkpt lat="46.84415" lon="6.51206">
        <ele>1183.0395508</ele>
        <time>2012-01-15T10:18:10Z</time>
      </trkpt>
      <trkpt lat="46.84397" lon="6.51213">
        <ele>1181.5976563</ele>
        <time>2012-01-15T10:19:41Z</time>
      </trkpt>
      <trkpt lat="46.84402" lon="6.5122">
        <ele>1179.6748047</ele>
        <time>2012-01-15T10:20:43Z</time>
      </trkpt>
      <trkpt lat="46.84389" lon="6.51205">
        <ele>1182.0783691</ele>
        <time>2012-01-15T10:21:47Z</time>
      </trkpt>
      <trkpt lat="46.84406" lon="6.51215">
        <ele>1182.0783691</ele>
        <time>2012-01-15T10:23:46Z</time>
      </trkpt>
      <trkpt lat="46.84408" lon="6.5124">
        <ele>1185.4428711</ele>
        <time>2012-01-15T10:24:11Z</time>
      </trkpt>
      <trkpt lat="46.84372" lon="6.51287">
        <ele>1192.1721191</ele>
        <time>2012-01-15T10:25:42Z</time>
      </trkpt>
      <trkpt lat="46.84356" lon="6.51279">
        <ele>1194.5751953</ele>
        <time>2012-01-15T10:26:27Z</time>
      </trkpt>
      <trkpt lat="46.84325" lon="6.513">
        <ele>1196.9787598</ele>
        <time>2012-01-15T10:27:27Z</time>
      </trkpt>
      <trkpt lat="46.84278" lon="6.51384">
        <ele>1209.9562988</ele>
        <time>2012-01-15T10:30:01Z</time>
      </trkpt>
      <trkpt lat="46.84272" lon="6.51417">
        <ele>1212.8405762</ele>
        <time>2012-01-15T10:31:16Z</time>
      </trkpt>
      <trkpt lat="46.8426" lon="6.51409">
        <ele>1212.3598633</ele>
        <time>2012-01-15T10:31:50Z</time>
      </trkpt>
      <trkpt lat="46.84281" lon="6.5141">
        <ele>1215.7246094</ele>
        <time>2012-01-15T10:33:33Z</time>
      </trkpt>
      <trkpt lat="46.84262" lon="6.51511">
        <ele>1222.4536133</ele>
        <time>2012-01-15T10:35:31Z</time>
      </trkpt>
      <trkpt lat="46.84277" lon="6.51505">
        <ele>1223.4150391</ele>
        <time>2012-01-15T10:36:12Z</time>
      </trkpt>
      <trkpt lat="46.8425" lon="6.51498">
        <ele>1223.8955078</ele>
        <time>2012-01-15T10:37:15Z</time>
      </trkpt>
      <trkpt lat="46.84219" lon="6.51543">
        <ele>1231.1057129</ele>
        <time>2012-01-15T10:38:36Z</time>
      </trkpt>
      <trkpt lat="46.84199" lon="6.51596">
        <ele>1233.5087891</ele>
        <time>2012-01-15T10:39:27Z</time>
      </trkpt>
      <trkpt lat="46.84177" lon="6.51617">
        <ele>1237.3540039</ele>
        <time>2012-01-15T10:40:30Z</time>
      </trkpt>
      <trkpt lat="46.84216" lon="6.51607">
        <ele>1242.1606445</ele>
        <time>2012-01-15T10:42:01Z</time>
      </trkpt>
      <trkpt lat="46.84222" lon="6.51653">
        <ele>1255.1384277</ele>
        <time>2012-01-15T10:43:39Z</time>
      </trkpt>
      <trkpt lat="46.84228" lon="6.51665">
        <ele>1257.541748</ele>
        <time>2012-01-15T10:44:10Z</time>
      </trkpt>
      <trkpt lat="46.84233" lon="6.51632">
        <ele>1263.3098145</ele>
        <time>2012-01-15T10:45:39Z</time>
      </trkpt>
      <trkpt lat="46.84264" lon="6.51644">
        <ele>1268.1162109</ele>
        <time>2012-01-15T10:46:38Z</time>
      </trkpt>
      <trkpt lat="46.84287" lon="6.5173">
        <ele>1284.4587402</ele>
        <time>2012-01-15T10:50:32Z</time>
      </trkpt>
      <trkpt lat="46.84287" lon="6.51742">
        <ele>1282.5361328</ele>
        <time>2012-01-15T10:50:45Z</time>
      </trkpt>
      <trkpt lat="46.84295" lon="6.51747">
        <ele>1287.8232422</ele>
        <time>2012-01-15T10:51:15Z</time>
      </trkpt>
      <trkpt lat="46.84308" lon="6.51782">
        <ele>1291.668457</ele>
        <time>2012-01-15T10:52:21Z</time>
      </trkpt>
      <trkpt lat="46.84319" lon="6.51796">
        <ele>1295.513916</ele>
        <time>2012-01-15T10:52:40Z</time>
      </trkpt>
      <trkpt lat="46.84324" lon="6.51801">
        <ele>1295.0332031</ele>
        <time>2012-01-15T10:53:21Z</time>
      </trkpt>
      <trkpt lat="46.84319" lon="6.51781">
        <ele>1295.513916</ele>
        <time>2012-01-15T10:53:53Z</time>
      </trkpt>
      <trkpt lat="46.84348" lon="6.51833">
        <ele>1310.8950195</ele>
        <time>2012-01-15T10:56:19Z</time>
      </trkpt>
      <trkpt lat="46.84355" lon="6.51823">
        <ele>1308.0112305</ele>
        <time>2012-01-15T10:57:36Z</time>
      </trkpt>
      <trkpt lat="46.84365" lon="6.519">
        <ele>1322.4306641</ele>
        <time>2012-01-15T11:06:10Z</time>
      </trkpt>
      <trkpt lat="46.84395" lon="6.51926">
        <ele>1328.6794434</ele>
        <time>2012-01-15T11:07:09Z</time>
      </trkpt>
      <trkpt lat="46.84398" lon="6.51943">
        <ele>1333.005127</ele>
        <time>2012-01-15T11:07:52Z</time>
      </trkpt>
      <trkpt lat="46.84396" lon="6.51921">
        <ele>1337.3310547</ele>
        <time>2012-01-15T11:08:31Z</time>
      </trkpt>
      <trkpt lat="46.8442" lon="6.5194">
        <ele>1346.9443359</ele>
        <time>2012-01-15T11:10:50Z</time>
      </trkpt>
      <trkpt lat="46.84467" lon="6.52093">
        <ele>1367.6125488</ele>
        <time>2012-01-15T11:17:33Z</time>
      </trkpt>
      <trkpt lat="46.84475" lon="6.52151">
        <ele>1371.9384766</ele>
        <time>2012-01-15T11:18:45Z</time>
      </trkpt>
      <trkpt lat="46.84458" lon="6.52191">
        <ele>1376.2646484</ele>
        <time>2012-01-15T11:19:37Z</time>
      </trkpt>
      <trkpt lat="46.84445" lon="6.52181">
        <ele>1379.1484375</ele>
        <time>2012-01-15T11:19:58Z</time>
      </trkpt>
      <trkpt lat="46.84418" lon="6.52142">
        <ele>1376.2646484</ele>
        <time>2012-01-15T11:20:46Z</time>
      </trkpt>
      <trkpt lat="46.84401" lon="6.5212">
        <ele>1372.4194336</ele>
        <time>2012-01-15T11:21:03Z</time>
      </trkpt>
      <trkpt lat="46.84387" lon="6.52151">
        <ele>1376.7453613</ele>
        <time>2012-01-15T11:21:58Z</time>
      </trkpt>
      <trkpt lat="46.84391" lon="6.52136">
        <ele>1373.8613281</ele>
        <time>2012-01-15T11:23:45Z</time>
      </trkpt>
      <trkpt lat="46.84393" lon="6.52141">
        <ele>1374.8227539</ele>
        <time>2012-01-15T11:29:57Z</time>
      </trkpt>
      <trkpt lat="46.84394" lon="6.52144">
        <ele>1372.4194336</ele>
        <time>2012-01-15T11:34:10Z</time>
      </trkpt>
      <trkpt lat="46.84394" lon="6.52141">
        <ele>1372.4194336</ele>
        <time>2012-01-15T11:35:29Z</time>
      </trkpt>
      <trkpt lat="46.84395" lon="6.52144">
        <ele>1370.0158691</ele>
        <time>2012-01-15T11:38:41Z</time>
      </trkpt>
      <trkpt lat="46.84387" lon="6.52137">
        <ele>1370.0158691</ele>
        <time>2012-01-15T11:58:47Z</time>
      </trkpt>
      <trkpt lat="46.8439" lon="6.52168">
        <ele>1366.1706543</ele>
        <time>2012-01-15T12:06:41Z</time>
      </trkpt>
      <trkpt lat="46.8439" lon="6.5217">
        <ele>1361.8449707</ele>
        <time>2012-01-15T12:06:43Z</time>
      </trkpt>
      <trkpt lat="46.844" lon="6.52178">
        <ele>1369.5354004</ele>
        <time>2012-01-15T12:07:00Z</time>
      </trkpt>
      <trkpt lat="46.84437" lon="6.522">
        <ele>1373.3808594</ele>
        <time>2012-01-15T12:07:56Z</time>
      </trkpt>
      <trkpt lat="46.84436" lon="6.522">
        <ele>1371.4577637</ele>
        <time>2012-01-15T12:08:02Z</time>
      </trkpt>
      <trkpt lat="46.84436" lon="6.522">
        <ele>1367.6125488</ele>
        <time>2012-01-15T12:08:03Z</time>
      </trkpt>
      <trkpt lat="46.84433" lon="6.52192">
        <ele>1366.6513672</ele>
        <time>2012-01-15T12:08:13Z</time>
      </trkpt>
      <trkpt lat="46.84435" lon="6.522">
        <ele>1366.6513672</ele>
        <time>2012-01-15T12:08:40Z</time>
      </trkpt>
      <trkpt lat="46.84435" lon="6.522">
        <ele>1361.8449707</ele>
        <time>2012-01-15T12:08:42Z</time>
      </trkpt>
      <trkpt lat="46.84435" lon="6.522">
        <ele>1368.0932617</ele>
        <time>2012-01-15T12:08:43Z</time>
      </trkpt>
      <trkpt lat="46.84435" lon="6.522">
        <ele>1367.1320801</ele>
        <time>2012-01-15T12:08:44Z</time>
      </trkpt>
      <trkpt lat="46.84437" lon="6.52199">
        <ele>1365.6901855</ele>
        <time>2012-01-15T12:08:55Z</time>
      </trkpt>
      <trkpt lat="46.84438" lon="6.52197">
        <ele>1368.5739746</ele>
        <time>2012-01-15T12:09:04Z</time>
      </trkpt>
      <trkpt lat="46.84438" lon="6.52196">
        <ele>1367.6125488</ele>
        <time>2012-01-15T12:09:11Z</time>
      </trkpt>
      <trkpt lat="46.84438" lon="6.52196">
        <ele>1363.767334</ele>
        <time>2012-01-15T12:09:12Z</time>
      </trkpt>
      <trkpt lat="46.84438" lon="6.52195">
        <ele>1367.6125488</ele>
        <time>2012-01-15T12:09:19Z</time>
      </trkpt>
      <trkpt lat="46.84438" lon="6.52195">
        <ele>1362.3254395</ele>
        <time>2012-01-15T12:09:23Z</time>
      </trkpt>
      <trkpt lat="46.84438" lon="6.52195">
        <ele>1366.6513672</ele>
        <time>2012-01-15T12:09:27Z</time>
      </trkpt>
      <trkpt lat="46.84439" lon="6.52194">
        <ele>1363.2868652</ele>
        <time>2012-01-15T12:09:32Z</time>
      </trkpt>
      <trkpt lat="46.84439" lon="6.52194">
        <ele>1366.1706543</ele>
        <time>2012-01-15T12:09:34Z</time>
      </trkpt>
      <trkpt lat="46.84439" lon="6.52194">
        <ele>1365.6901855</ele>
        <time>2012-01-15T12:09:35Z</time>
      </trkpt>
      <trkpt lat="46.84439" lon="6.52194">
        <ele>1368.0932617</ele>
        <time>2012-01-15T12:09:54Z</time>
      </trkpt>
      <trkpt lat="46.84438" lon="6.52194">
        <ele>1361.8449707</ele>
        <time>2012-01-15T12:10:40Z</time>
      </trkpt>
      <trkpt lat="46.84438" lon="6.52194">
        <ele>1366.1706543</ele>
        <time>2012-01-15T12:10:41Z</time>
      </trkpt>
      <trkpt lat="46.84438" lon="6.52194">
        <ele>1369.5354004</ele>
        <time>2012-01-15T12:10:56Z</time>
      </trkpt>
      <trkpt lat="46.84438" lon="6.52194">
        <ele>1367.1320801</ele>
        <time>2012-01-15T12:10:57Z</time>
      </trkpt>
      <trkpt lat="46.84437" lon="6.52196">
        <ele>1370.9772949</ele>
        <time>2012-01-15T12:11:08Z</time>
      </trkpt>
      <trkpt lat="46.84435" lon="6.52199">
        <ele>1366.6513672</ele>
        <time>2012-01-15T12:11:22Z</time>
      </trkpt>
      <trkpt lat="46.84434" lon="6.52199">
        <ele>1367.1320801</ele>
        <time>2012-01-15T12:11:48Z</time>
      </trkpt>
      <trkpt lat="46.84435" lon="6.52198">
        <ele>1371.9384766</ele>
        <time>2012-01-15T12:11:54Z</time>
      </trkpt>
      <trkpt lat="46.84445" lon="6.52194">
        <ele>1365.6901855</ele>
        <time>2012-01-15T12:12:02Z</time>
      </trkpt>
      <trkpt lat="46.84463" lon="6.52122">
        <ele>1364.2480469</ele>
        <time>2012-01-15T12:12:21Z</time>
      </trkpt>
      <trkpt lat="46.84454" lon="6.52068">
        <ele>1356.0769043</ele>
        <time>2012-01-15T12:12:35Z</time>
      </trkpt>
      <trkpt lat="46.84468" lon="6.5206">
        <ele>1355.5961914</ele>
        <time>2012-01-15T12:12:37Z</time>
      </trkpt>
      <trkpt lat="46.84453" lon="6.52062">
        <ele>1351.7509766</ele>
        <time>2012-01-15T12:12:39Z</time>
      </trkpt>
      <trkpt lat="46.84445" lon="6.52001">
        <ele>1347.4250488</ele>
        <time>2012-01-15T12:13:52Z</time>
      </trkpt>
      <trkpt lat="46.8443" lon="6.51959">
        <ele>1336.369873</ele>
        <time>2012-01-15T12:14:36Z</time>
      </trkpt>
      <trkpt lat="46.84428" lon="6.51949">
        <ele>1331.5632324</ele>
        <time>2012-01-15T12:14:40Z</time>
      </trkpt>
      <trkpt lat="46.84426" lon="6.51946">
        <ele>1332.0439453</ele>
        <time>2012-01-15T12:14:48Z</time>
      </trkpt>
      <trkpt lat="46.84419" lon="6.51935">
        <ele>1324.8342285</ele>
        <time>2012-01-15T12:14:53Z</time>
      </trkpt>
      <trkpt lat="46.84412" lon="6.51935">
        <ele>1323.8725586</ele>
        <time>2012-01-15T12:15:33Z</time>
      </trkpt>
      <trkpt lat="46.84405" lon="6.51933">
        <ele>1319.546875</ele>
        <time>2012-01-15T12:15:37Z</time>
      </trkpt>
      <trkpt lat="46.84387" lon="6.5188">
        <ele>1308.9724121</ele>
        <time>2012-01-15T12:15:46Z</time>
      </trkpt>
      <trkpt lat="46.84379" lon="6.51867">
        <ele>1302.7236328</ele>
        <time>2012-01-15T12:15:49Z</time>
      </trkpt>
      <trkpt lat="46.84358" lon="6.51873">
        <ele>1305.607666</ele>
        <time>2012-01-15T12:15:50Z</time>
      </trkpt>
      <trkpt lat="46.84355" lon="6.51853">
        <ele>1304.1657715</ele>
        <time>2012-01-15T12:19:20Z</time>
      </trkpt>
      <trkpt lat="46.84348" lon="6.51786">
        <ele>1289.2651367</ele>
        <time>2012-01-15T12:20:55Z</time>
      </trkpt>
      <trkpt lat="46.84347" lon="6.51783">
        <ele>1286.8618164</ele>
        <time>2012-01-15T12:20:57Z</time>
      </trkpt>
      <trkpt lat="46.84308" lon="6.51802">
        <ele>1282.5361328</ele>
        <time>2012-01-15T12:21:02Z</time>
      </trkpt>
      <trkpt lat="46.84292" lon="6.51776">
        <ele>1274.845459</ele>
        <time>2012-01-15T12:21:19Z</time>
      </trkpt>
      <trkpt lat="46.84283" lon="6.51682">
        <ele>1262.3483887</ele>
        <time>2012-01-15T12:23:11Z</time>
      </trkpt>
      <trkpt lat="46.84225" lon="6.51632">
        <ele>1239.7573242</ele>
        <time>2012-01-15T12:25:52Z</time>
      </trkpt>
      <trkpt lat="46.84173" lon="6.51646">
        <ele>1238.7961426</ele>
        <time>2012-01-15T12:25:53Z</time>
      </trkpt>
      <trkpt lat="46.84211" lon="6.51625">
        <ele>1233.0280762</ele>
        <time>2012-01-15T12:25:56Z</time>
      </trkpt>
      <trkpt lat="46.84165" lon="6.51607">
        <ele>1218.6083984</ele>
        <time>2012-01-15T12:26:09Z</time>
      </trkpt>
      <trkpt lat="46.84165" lon="6.51607">
        <ele>1227.7407227</ele>
        <time>2012-01-15T12:29:24Z</time>
      </trkpt>
      <trkpt lat="46.84183" lon="6.51612">
        <ele>1221.0117188</ele>
        <time>2012-01-15T12:34:04Z</time>
      </trkpt>
      <trkpt lat="46.84183" lon="6.51612">
        <ele>1223.4150391</ele>
        <time>2012-01-15T12:37:03Z</time>
      </trkpt>
      <trkpt lat="46.84195" lon="6.51616">
        <ele>1225.8181152</ele>
        <time>2012-01-15T12:37:08Z</time>
      </trkpt>
      <trkpt lat="46.84195" lon="6.51616">
        <ele>1227.7407227</ele>
        <time>2012-01-15T12:37:30Z</time>
      </trkpt>
      <trkpt lat="46.84202" lon="6.5162">
        <ele>1231.1057129</ele>
        <time>2012-01-15T12:37:40Z</time>
      </trkpt>
      <trkpt lat="46.84214" lon="6.51626">
        <ele>1244.0834961</ele>
        <time>2012-01-15T12:38:27Z</time>
      </trkpt>
      <trkpt lat="46.84236" lon="6.51635">
        <ele>1247.447998</ele>
        <time>2012-01-15T12:38:48Z</time>
      </trkpt>
      <trkpt lat="46.84245" lon="6.51687">
        <ele>1249.3706055</ele>
        <time>2012-01-15T12:38:57Z</time>
      </trkpt>
      <trkpt lat="46.84262" lon="6.5168">
        <ele>1253.2158203</ele>
        <time>2012-01-15T12:39:24Z</time>
      </trkpt>
      <trkpt lat="46.84275" lon="6.51724">
        <ele>1262.8291016</ele>
        <time>2012-01-15T12:40:04Z</time>
      </trkpt>
      <trkpt lat="46.84307" lon="6.51766">
        <ele>1274.845459</ele>
        <time>2012-01-15T12:41:11Z</time>
      </trkpt>
      <trkpt lat="46.84317" lon="6.51801">
        <ele>1281.574707</ele>
        <time>2012-01-15T12:41:47Z</time>
      </trkpt>
      <trkpt lat="46.84349" lon="6.5182">
        <ele>1294.0720215</ele>
        <time>2012-01-15T12:42:48Z</time>
      </trkpt>
      <trkpt lat="46.84357" lon="6.51829">
        <ele>1296.4753418</ele>
        <time>2012-01-15T12:43:07Z</time>
      </trkpt>
      <trkpt lat="46.84375" lon="6.5188">
        <ele>1308.9724121</ele>
        <time>2012-01-15T12:44:00Z</time>
      </trkpt>
      <trkpt lat="46.84393" lon="6.51924">
        <ele>1313.2983398</ele>
        <time>2012-01-15T12:45:01Z</time>
      </trkpt>
      <trkpt lat="46.84424" lon="6.51933">
        <ele>1329.1599121</ele>
        <time>2012-01-15T12:46:25Z</time>
      </trkpt>
      <trkpt lat="46.84489" lon="6.52159">
        <ele>1362.3254395</ele>
        <time>2012-01-15T12:50:10Z</time>
      </trkpt>
      <trkpt lat="46.84485" lon="6.52181">
        <ele>1369.0546875</ele>
        <time>2012-01-15T12:50:29Z</time>
      </trkpt>
      <trkpt lat="46.84476" lon="6.52205">
        <ele>1367.1320801</ele>
        <time>2012-01-15T12:50:51Z</time>
      </trkpt>
      <trkpt lat="46.84419" lon="6.52312">
        <ele>1382.5131836</ele>
        <time>2012-01-15T12:54:24Z</time>
      </trkpt>
      <trkpt lat="46.84363" lon="6.52351">
        <ele>1398.8554688</ele>
        <time>2012-01-15T12:56:27Z</time>
      </trkpt>
      <trkpt lat="46.84362" lon="6.52352">
        <ele>1396.9328613</ele>
        <time>2012-01-15T12:56:30Z</time>
      </trkpt>
      <trkpt lat="46.84379" lon="6.52398">
        <ele>1409.9106445</ele>
        <time>2012-01-15T12:57:35Z</time>
      </trkpt>
      <trkpt lat="46.84381" lon="6.52467">
        <ele>1431.5402832</ele>
        <time>2012-01-15T12:59:32Z</time>
      </trkpt>
      <trkpt lat="46.84395" lon="6.52571">
        <ele>1453.6508789</ele>
        <time>2012-01-15T13:02:11Z</time>
      </trkpt>
      <trkpt lat="46.84314" lon="6.52532">
        <ele>1482.9707031</ele>
        <time>2012-01-15T13:05:15Z</time>
      </trkpt>
      <trkpt lat="46.84321" lon="6.52545">
        <ele>1483.451416</ele>
        <time>2012-01-15T13:05:33Z</time>
      </trkpt>
      <trkpt lat="46.84306" lon="6.52553">
        <ele>1494.5065918</ele>
        <time>2012-01-15T13:06:15Z</time>
      </trkpt>
      <trkpt lat="46.84319" lon="6.52633">
        <ele>1509.8876953</ele>
        <time>2012-01-15T13:08:00Z</time>
      </trkpt>
      <trkpt lat="46.84308" lon="6.52628">
        <ele>1516.1364746</ele>
        <time>2012-01-15T13:08:25Z</time>
      </trkpt>
      <trkpt lat="46.843" lon="6.52628">
        <ele>1517.0979004</ele>
        <time>2012-01-15T13:08:49Z</time>
      </trkpt>
      <trkpt lat="46.84302" lon="6.52648">
        <ele>1524.3076172</ele>
        <time>2012-01-15T13:09:28Z</time>
      </trkpt>
      <trkpt lat="46.84302" lon="6.5265">
        <ele>1523.3464355</ele>
        <time>2012-01-15T13:09:36Z</time>
      </trkpt>
      <trkpt lat="46.84286" lon="6.52639">
        <ele>1529.5947266</ele>
        <time>2012-01-15T13:10:18Z</time>
      </trkpt>
      <trkpt lat="46.84287" lon="6.5264">
        <ele>1531.517334</ele>
        <time>2012-01-15T13:10:25Z</time>
      </trkpt>
      <trkpt lat="46.84287" lon="6.52641">
        <ele>1528.152832</ele>
        <time>2012-01-15T13:10:27Z</time>
      </trkpt>
      <trkpt lat="46.84294" lon="6.52659">
        <ele>1532.9594727</ele>
        <time>2012-01-15T13:10:53Z</time>
      </trkpt>
      <trkpt lat="46.84261" lon="6.52648">
        <ele>1550.2634277</ele>
        <time>2012-01-15T13:13:23Z</time>
      </trkpt>
      <trkpt lat="46.84239" lon="6.52649">
        <ele>1561.3183594</ele>
        <time>2012-01-15T13:14:54Z</time>
      </trkpt>
      <trkpt lat="46.84227" lon="6.52648">
        <ele>1563.2409668</ele>
        <time>2012-01-15T13:15:12Z</time>
      </trkpt>
      <trkpt lat="46.84243" lon="6.52682">
        <ele>1574.2961426</ele>
        <time>2012-01-15T13:16:27Z</time>
      </trkpt>
      <trkpt lat="46.84234" lon="6.5269">
        <ele>1579.1025391</ele>
        <time>2012-01-15T13:17:23Z</time>
      </trkpt>
      <trkpt lat="46.84293" lon="6.52795">
        <ele>1585.8320313</ele>
        <time>2012-01-15T13:20:27Z</time>
      </trkpt>
      <trkpt lat="46.84293" lon="6.52796">
        <ele>1581.9868164</ele>
        <time>2012-01-15T13:21:04Z</time>
      </trkpt>
      <trkpt lat="46.84293" lon="6.52796">
        <ele>1580.064209</ele>
        <time>2012-01-15T13:21:13Z</time>
      </trkpt>
      <trkpt lat="46.84293" lon="6.52796">
        <ele>1583.4287109</ele>
        <time>2012-01-15T13:21:14Z</time>
      </trkpt>
      <trkpt lat="46.84293" lon="6.52796">
        <ele>1583.9094238</ele>
        <time>2012-01-15T13:21:24Z</time>
      </trkpt>
      <trkpt lat="46.84293" lon="6.52796">
        <ele>1584.3901367</ele>
        <time>2012-01-15T13:21:32Z</time>
      </trkpt>
      <trkpt lat="46.8429" lon="6.52796">
        <ele>1580.064209</ele>
        <time>2012-01-15T13:21:34Z</time>
      </trkpt>
      <trkpt lat="46.84287" lon="6.52795">
        <ele>1580.5449219</ele>
        <time>2012-01-15T13:21:37Z</time>
      </trkpt>
      <trkpt lat="46.84276" lon="6.52782">
        <ele>1580.5449219</ele>
        <time>2012-01-15T13:21:49Z</time>
      </trkpt>
      <trkpt lat="46.84233" lon="6.52691">
        <ele>1578.1413574</ele>
        <time>2012-01-15T13:22:55Z</time>
      </trkpt>
      <trkpt lat="46.84247" lon="6.52644">
        <ele>1556.5117188</ele>
        <time>2012-01-15T13:30:10Z</time>
      </trkpt>
      <trkpt lat="46.84249" lon="6.52641">
        <ele>1551.2246094</ele>
        <time>2012-01-15T13:30:12Z</time>
      </trkpt>
      <trkpt lat="46.84258" lon="6.52643">
        <ele>1548.8212891</ele>
        <time>2012-01-15T13:30:17Z</time>
      </trkpt>
      <trkpt lat="46.84278" lon="6.52634">
        <ele>1535.8435059</ele>
        <time>2012-01-15T13:30:36Z</time>
      </trkpt>
      <trkpt lat="46.84288" lon="6.52643">
        <ele>1532.9594727</ele>
        <time>2012-01-15T13:30:48Z</time>
      </trkpt>
      <trkpt lat="46.8432" lon="6.52658">
        <ele>1514.213623</ele>
        <time>2012-01-15T13:31:18Z</time>
      </trkpt>
      <trkpt lat="46.84343" lon="6.52651">
        <ele>1498.3518066</ele>
        <time>2012-01-15T13:31:28Z</time>
      </trkpt>
      <trkpt lat="46.84347" lon="6.52631">
        <ele>1493.0646973</ele>
        <time>2012-01-15T13:31:36Z</time>
      </trkpt>
      <trkpt lat="46.84375" lon="6.5264">
        <ele>1476.7224121</ele>
        <time>2012-01-15T13:31:52Z</time>
      </trkpt>
      <trkpt lat="46.8438" lon="6.52626">
        <ele>1466.628418</ele>
        <time>2012-01-15T13:32:04Z</time>
      </trkpt>
      <trkpt lat="46.8438" lon="6.52623">
        <ele>1463.263916</ele>
        <time>2012-01-15T13:32:09Z</time>
      </trkpt>
      <trkpt lat="46.84423" lon="6.52679">
        <ele>1454.1315918</ele>
        <time>2012-01-15T13:32:25Z</time>
      </trkpt>
      <trkpt lat="46.84485" lon="6.52597">
        <ele>1395.0102539</ele>
        <time>2012-01-15T13:33:06Z</time>
      </trkpt>
      <trkpt lat="46.84503" lon="6.5259">
        <ele>1380.5905762</ele>
        <time>2012-01-15T13:33:16Z</time>
      </trkpt>
      <trkpt lat="46.84539" lon="6.52519">
        <ele>1375.3032227</ele>
        <time>2012-01-15T13:33:34Z</time>
      </trkpt>
      <trkpt lat="46.84453" lon="6.52236">
        <ele>1365.2094727</ele>
        <time>2012-01-15T13:34:28Z</time>
      </trkpt>
      <trkpt lat="46.84512" lon="6.52133">
        <ele>1352.2314453</ele>
        <time>2012-01-15T13:34:52Z</time>
      </trkpt>
      <trkpt lat="46.84463" lon="6.52122">
        <ele>1346.9443359</ele>
        <time>2012-01-15T13:34:56Z</time>
      </trkpt>
      <trkpt lat="46.84442" lon="6.51997">
        <ele>1332.5246582</ele>
        <time>2012-01-15T13:35:16Z</time>
      </trkpt>
      <trkpt lat="46.84407" lon="6.51914">
        <ele>1311.8564453</ele>
        <time>2012-01-15T13:35:37Z</time>
      </trkpt>
      <trkpt lat="46.84364" lon="6.51926">
        <ele>1305.607666</ele>
        <time>2012-01-15T13:35:42Z</time>
      </trkpt>
      <trkpt lat="46.84395" lon="6.51894">
        <ele>1299.3591309</ele>
        <time>2012-01-15T13:35:48Z</time>
      </trkpt>
      <trkpt lat="46.8436" lon="6.51886">
        <ele>1292.630127</ele>
        <time>2012-01-15T13:35:53Z</time>
      </trkpt>
      <trkpt lat="46.84354" lon="6.51847">
        <ele>1284.4587402</ele>
        <time>2012-01-15T13:36:03Z</time>
      </trkpt>
      <trkpt lat="46.84354" lon="6.51843">
        <ele>1280.6135254</ele>
        <time>2012-01-15T13:36:09Z</time>
      </trkpt>
      <trkpt lat="46.84348" lon="6.51785">
        <ele>1265.2324219</ele>
        <time>2012-01-15T13:36:21Z</time>
      </trkpt>
      <trkpt lat="46.84343" lon="6.51758">
        <ele>1259.4643555</ele>
        <time>2012-01-15T13:36:44Z</time>
      </trkpt>
      <trkpt lat="46.84296" lon="6.51768">
        <ele>1256.0996094</ele>
        <time>2012-01-15T13:36:47Z</time>
      </trkpt>
      <trkpt lat="46.84286" lon="6.51695">
        <ele>1247.9287109</ele>
        <time>2012-01-15T13:37:05Z</time>
      </trkpt>
      <trkpt lat="46.84253" lon="6.51691">
        <ele>1233.0280762</ele>
        <time>2012-01-15T13:37:15Z</time>
      </trkpt>
      <trkpt lat="46.84228" lon="6.51671">
        <ele>1223.4150391</ele>
        <time>2012-01-15T13:37:27Z</time>
      </trkpt>
      <trkpt lat="46.84225" lon="6.5165">
        <ele>1223.4150391</ele>
        <time>2012-01-15T13:38:37Z</time>
      </trkpt>
      <trkpt lat="46.84214" lon="6.51654">
        <ele>1217.1665039</ele>
        <time>2012-01-15T13:38:50Z</time>
      </trkpt>
      <trkpt lat="46.84218" lon="6.51627">
        <ele>1212.3598633</ele>
        <time>2012-01-15T13:38:56Z</time>
      </trkpt>
      <trkpt lat="46.8421" lon="6.51615">
        <ele>1206.111084</ele>
        <time>2012-01-15T13:39:00Z</time>
      </trkpt>
      <trkpt lat="46.84179" lon="6.5161">
        <ele>1225.3374023</ele>
        <time>2012-01-15T13:42:44Z</time>
      </trkpt>
      <trkpt lat="46.84218" lon="6.51629">
        <ele>1221.4921875</ele>
        <time>2012-01-15T13:42:48Z</time>
      </trkpt>
      <trkpt lat="46.84162" lon="6.5162">
        <ele>1204.1887207</ele>
        <time>2012-01-15T13:43:14Z</time>
      </trkpt>
      <trkpt lat="46.84162" lon="6.5162">
        <ele>1220.5310059</ele>
        <time>2012-01-15T13:46:08Z</time>
      </trkpt>
      <trkpt lat="46.84195" lon="6.51616">
        <ele>1212.3598633</ele>
        <time>2012-01-15T13:47:42Z</time>
      </trkpt>
      <trkpt lat="46.84165" lon="6.51607">
        <ele>1222.9343262</ele>
        <time>2012-01-15T14:01:13Z</time>
      </trkpt>
      <trkpt lat="46.84179" lon="6.5148">
        <ele>1223.8955078</ele>
        <time>2012-01-15T14:01:32Z</time>
      </trkpt>
      <trkpt lat="46.84179" lon="6.5148">
        <ele>1236.3928223</ele>
        <time>2012-01-15T14:03:58Z</time>
      </trkpt>
      <trkpt lat="46.84117" lon="6.51337">
        <ele>1238.7961426</ele>
        <time>2012-01-15T14:04:23Z</time>
      </trkpt>
      <trkpt lat="46.84117" lon="6.51337">
        <ele>1247.9287109</ele>
        <time>2012-01-15T14:06:13Z</time>
      </trkpt>
      <trkpt lat="46.84141" lon="6.51183">
        <ele>1278.2102051</ele>
        <time>2012-01-15T14:14:42Z</time>
      </trkpt>
      <trkpt lat="46.8423" lon="6.511">
        <ele>1281.0942383</ele>
        <time>2012-01-15T14:14:56Z</time>
      </trkpt>
      <trkpt lat="46.84203" lon="6.51057">
        <ele>1295.513916</ele>
        <time>2012-01-15T14:29:35Z</time>
      </trkpt>
      <trkpt lat="46.84122" lon="6.50925">
        <ele>1278.2102051</ele>
        <time>2012-01-15T14:30:10Z</time>
      </trkpt>
      <trkpt lat="46.84046" lon="6.50892">
        <ele>1272.9228516</ele>
        <time>2012-01-15T14:30:37Z</time>
      </trkpt>
      <trkpt lat="46.84009" lon="6.50891">
        <ele>1258.9836426</ele>
        <time>2012-01-15T14:33:51Z</time>
      </trkpt>
      <trkpt lat="46.83992" lon="6.50796">
        <ele>1258.0224609</ele>
        <time>2012-01-15T14:34:47Z</time>
      </trkpt>
      <trkpt lat="46.83984" lon="6.50786">
        <ele>1255.6191406</ele>
        <time>2012-01-15T14:35:43Z</time>
      </trkpt>
      <trkpt lat="46.83992" lon="6.50765">
        <ele>1250.8125</ele>
        <time>2012-01-15T14:35:51Z</time>
      </trkpt>
      <trkpt lat="46.83974" lon="6.50747">
        <ele>1248.4091797</ele>
        <time>2012-01-15T14:35:58Z</time>
      </trkpt>
      <trkpt lat="46.83983" lon="6.50737">
        <ele>1246.4868164</ele>
        <time>2012-01-15T14:36:03Z</time>
      </trkpt>
      <trkpt lat="46.83972" lon="6.50716">
        <ele>1243.1218262</ele>
        <time>2012-01-15T14:36:08Z</time>
      </trkpt>
      <trkpt lat="46.83939" lon="6.50677">
        <ele>1240.7185059</ele>
        <time>2012-01-15T14:36:36Z</time>
      </trkpt>
      <trkpt lat="46.83913" lon="6.50583">
        <ele>1225.8181152</ele>
        <time>2012-01-15T14:38:54Z</time>
      </trkpt>
      <trkpt lat="46.83908" lon="6.50541">
        <ele>1217.6469727</ele>
        <time>2012-01-15T14:39:31Z</time>
      </trkpt>
      <trkpt lat="46.83927" lon="6.50461">
        <ele>1213.8017578</ele>
        <time>2012-01-15T14:39:34Z</time>
      </trkpt>
      <trkpt lat="46.8388" lon="6.50408">
        <ele>1212.8405762</ele>
        <time>2012-01-15T14:42:43Z</time>
      </trkpt>
      <trkpt lat="46.84017" lon="6.50563">
        <ele>1197.9401855</ele>
        <time>2012-01-15T14:46:07Z</time>
      </trkpt>
      <trkpt lat="46.84049" lon="6.50554">
        <ele>1194.5751953</ele>
        <time>2012-01-15T14:47:06Z</time>
      </trkpt>
      <trkpt lat="46.84059" lon="6.50561">
        <ele>1190.2495117</ele>
        <time>2012-01-15T14:47:10Z</time>
      </trkpt>
      <trkpt lat="46.84115" lon="6.50646">
        <ele>1189.2880859</ele>
        <time>2012-01-15T14:48:15Z</time>
      </trkpt>
      <trkpt lat="46.84106" lon="6.5065">
        <ele>1188.8076172</ele>
        <time>2012-01-15T14:49:21Z</time>
      </trkpt>
      <trkpt lat="46.8413" lon="6.50653">
        <ele>1188.8076172</ele>
        <time>2012-01-15T14:49:51Z</time>
      </trkpt>
      <trkpt lat="46.84161" lon="6.50671">
        <ele>1184.9624023</ele>
        <time>2012-01-15T14:50:32Z</time>
      </trkpt>
      <trkpt lat="46.84249" lon="6.50749">
        <ele>1166.6972656</ele>
        <time>2012-01-15T14:53:48Z</time>
      </trkpt>
      <trkpt lat="46.84312" lon="6.50766">
        <ele>1156.1225586</ele>
        <time>2012-01-15T14:55:50Z</time>
      </trkpt>
      <trkpt lat="46.84325" lon="6.50768">
        <ele>1147.951416</ele>
        <time>2012-01-15T14:56:11Z</time>
      </trkpt>
      <trkpt lat="46.84342" lon="6.50796">
        <ele>1145.5480957</ele>
        <time>2012-01-15T14:58:15Z</time>
      </trkpt>
      <trkpt lat="46.84361" lon="6.50811">
        <ele>1141.7028809</ele>
        <time>2012-01-15T14:58:39Z</time>
      </trkpt>
      <trkpt lat="46.84369" lon="6.50852">
        <ele>1134.973877</ele>
        <time>2012-01-15T14:58:50Z</time>
      </trkpt>
      <trkpt lat="46.84403" lon="6.50864">
        <ele>1134.973877</ele>
        <time>2012-01-15T14:59:54Z</time>
      </trkpt>
      <trkpt lat="46.84409" lon="6.50845">
        <ele>1130.6477051</ele>
        <time>2012-01-15T15:00:00Z</time>
      </trkpt>
      <trkpt lat="46.84348" lon="6.5071">
        <ele>1125.8410645</ele>
        <time>2012-01-15T15:01:27Z</time>
      </trkpt>
      <trkpt lat="46.84274" lon="6.50673">
        <ele>1118.6313477</ele>
        <time>2012-01-15T15:04:44Z</time>
      </trkpt>
      <trkpt lat="46.8424" lon="6.50626">
        <ele>1115.7473145</ele>
        <time>2012-01-15T15:05:13Z</time>
      </trkpt>
      <trkpt lat="46.84216" lon="6.50615">
        <ele>1113.8244629</ele>
        <time>2012-01-15T15:05:27Z</time>
      </trkpt>
      <trkpt lat="46.84162" lon="6.50517">
        <ele>1108.5373535</ele>
        <time>2012-01-15T15:05:56Z</time>
      </trkpt>
      <trkpt lat="46.84032" lon="6.50343">
        <ele>1091.7143555</ele>
        <time>2012-01-15T15:06:41Z</time>
      </trkpt>
      <trkpt lat="46.8401" lon="6.50283">
        <ele>1090.2724609</ele>
        <time>2012-01-15T15:07:04Z</time>
      </trkpt>
      <trkpt lat="46.84006" lon="6.50261">
        <ele>1089.3110352</ele>
        <time>2012-01-15T15:08:32Z</time>
      </trkpt>
      <trkpt lat="46.84016" lon="6.50268">
        <ele>1093.15625</ele>
        <time>2012-01-15T15:10:16Z</time>
      </trkpt>
      <trkpt lat="46.83994" lon="6.50256">
        <ele>1094.1176758</ele>
        <time>2012-01-15T15:11:00Z</time>
      </trkpt>
      <trkpt lat="46.83992" lon="6.50246">
        <ele>1090.7529297</ele>
        <time>2012-01-15T15:11:50Z</time>
      </trkpt>
      <trkpt lat="46.84003" lon="6.50244">
        <ele>1086.4272461</ele>
        <time>2012-01-15T15:14:00Z</time>
      </trkpt>
      <trkpt lat="46.83989" lon="6.50235">
        <ele>1084.9853516</ele>
        <time>2012-01-15T15:16:32Z</time>
      </trkpt>
      <trkpt lat="46.83926" lon="6.50031">
        <ele>1065.7587891</ele>
        <time>2012-01-15T15:17:28Z</time>
      </trkpt>
      <trkpt lat="46.83926" lon="6.50031">
        <ele>1063.8359375</ele>
        <time>2012-01-15T15:18:34Z</time>
      </trkpt>
    </trkseg>
  </trk>
</gpx>